Time;durP1;ratioP1;P1;durP2;ratioP2;P2;SDS_P1;SDS_P2;PMS_P1;PMS_P2;Temp;Humidity;BMP_temperature;BMP_pressure;BME280_temperature;BME280_humidity;BME280_pressure;Samples;Min_cycle;Max_cycle;Signal;HPM_P1;HPM_P2
2021/11/02 00:01:11;;;;;;;4.68;3.90;;;7.40;99.90;;;;;;5074355;28;20197;-73
2021/11/02 00:03:39;;;;;;;4.78;4.10;;;7.50;99.90;;;;;;5075095;28;20219;-73
2021/11/02 00:06:06;;;;;;;6.18;4.35;;;7.50;99.90;;;;;;5075031;28;20207;-73
2021/11/02 00:08:34;;;;;;;4.63;3.83;;;7.50;99.90;;;;;;5074522;28;20253;-73
2021/11/02 00:11:01;;;;;;;4.55;3.90;;;7.60;99.90;;;;;;5074306;28;20225;-73
2021/11/02 00:13:34;;;;;;;5.47;4.50;;;7.50;99.90;;;;;;5074553;28;20210;-73
2021/11/02 00:16:06;;;;;;;8.35;4.50;;;7.50;99.90;;;;;;5075795;28;20214;-73
2021/11/02 00:18:34;;;;;;;8.30;4.32;;;7.50;99.90;;;;;;5075861;28;20233;-74
2021/11/02 00:21:01;;;;;;;7.28;4.50;;;7.50;99.90;;;;;;5075018;28;20205;-73
2021/11/02 00:23:35;;;;;;;4.47;4.07;;;7.50;99.90;;;;;;5077330;28;20444;-73
2021/11/02 00:26:04;;;;;;;5.25;3.83;;;7.60;99.90;;;;;;5074365;28;20203;-73
2021/11/02 00:28:30;;;;;;;5.90;4.13;;;7.60;99.90;;;;;;5073844;28;20239;-72
2021/11/02 00:30:57;;;;;;;5.22;4.05;;;7.70;99.90;;;;;;5073602;28;20362;-72
2021/11/02 00:33:24;;;;;;;5.20;3.70;;;7.80;99.90;;;;;;5073636;28;20729;-71
2021/11/02 00:35:51;;;;;;;4.25;3.28;;;7.80;99.90;;;;;;5073851;28;20759;-72
2021/11/02 00:38:18;;;;;;;6.15;3.40;;;7.80;99.90;;;;;;5074171;28;20258;-72
2021/11/02 00:40:46;;;;;;;4.90;3.35;;;7.90;99.90;;;;;;5073651;28;20213;-71
2021/11/02 00:43:15;;;;;;;2.72;2.40;;;7.90;99.90;;;;;;5073842;28;20209;-72
2021/11/02 00:45:44;;;;;;;3.63;2.60;;;8.00;99.90;;;;;;5073374;28;20206;-72
2021/11/02 00:48:12;;;;;;;3.25;2.65;;;8.00;99.90;;;;;;5073949;28;20244;-73
2021/11/02 00:50:41;;;;;;;3.00;2.60;;;8.00;99.90;;;;;;5073555;28;20347;-72
2021/11/02 00:53:09;;;;;;;5.80;2.25;;;8.10;99.90;;;;;;5073726;28;20664;-73
2021/11/02 00:55:36;;;;;;;6.72;2.72;;;8.10;99.90;;;;;;5073547;28;20209;-73
2021/11/02 00:58:05;;;;;;;3.83;2.20;;;8.10;99.90;;;;;;5073467;28;20210;-73
2021/11/02 01:00:34;;;;;;;2.92;2.20;;;8.20;99.90;;;;;;5073541;28;20699;-73
2021/11/02 01:03:02;;;;;;;4.10;2.75;;;8.20;99.90;;;;;;5073777;28;20214;-73
2021/11/02 01:05:29;;;;;;;3.50;2.20;;;8.20;99.90;;;;;;5073431;28;20211;-72
2021/11/02 01:07:55;;;;;;;2.22;2.03;;;8.20;99.90;;;;;;5073687;28;20207;-73
2021/11/02 01:10:23;;;;;;;3.60;2.10;;;8.20;99.90;;;;;;5073184;28;20237;-71
2021/11/02 01:12:52;;;;;;;3.92;2.70;;;8.20;99.90;;;;;;5072938;28;20226;-73
2021/11/02 01:15:21;;;;;;;2.75;2.25;;;8.30;99.90;;;;;;5073349;28;20206;-72
2021/11/02 01:17:50;;;;;;;2.47;2.25;;;8.30;99.90;;;;;;5073408;28;20246;-73
2021/11/02 01:20:17;;;;;;;2.97;1.95;;;8.30;99.90;;;;;;5072989;28;20294;-72
2021/11/02 01:22:46;;;;;;;3.13;2.35;;;8.40;99.90;;;;;;5073789;28;20205;-72
2021/11/02 01:25:13;;;;;;;2.97;2.22;;;8.40;99.90;;;;;;5074070;28;20244;-72
2021/11/02 01:27:41;;;;;;;2.42;2.10;;;8.40;99.90;;;;;;5074010;28;20677;-71
2021/11/02 01:30:09;;;;;;;5.45;2.50;;;8.50;99.90;;;;;;5073363;28;20225;-71
2021/11/02 01:32:36;;;;;;;2.85;2.10;;;8.40;99.90;;;;;;5074260;28;20294;-72
2021/11/02 01:35:05;;;;;;;2.72;2.30;;;8.50;99.90;;;;;;5073485;28;20235;-72
2021/11/02 01:37:32;;;;;;;2.50;2.25;;;8.50;99.90;;;;;;5073670;28;20360;-72
2021/11/02 01:40:00;;;;;;;4.13;2.70;;;8.50;99.90;;;;;;5073370;28;20737;-72
2021/11/02 01:42:27;;;;;;;4.65;2.22;;;8.40;99.90;;;;;;5073597;28;20372;-72
2021/11/02 01:44:54;;;;;;;2.67;2.47;;;8.40;99.90;;;;;;5072845;28;20229;-72
2021/11/02 01:47:23;;;;;;;3.22;2.15;;;8.40;99.90;;;;;;5073532;28;20210;-72
2021/11/02 01:49:50;;;;;;;6.85;2.10;;;8.40;99.90;;;;;;5073551;28;20674;-73
2021/11/02 01:52:18;;;;;;;5.10;2.40;;;8.40;99.90;;;;;;5074504;28;20214;-73
2021/11/02 01:54:46;;;;;;;2.83;2.20;;;8.40;99.90;;;;;;5073482;28;20336;-72
2021/11/02 01:57:12;;;;;;;2.53;2.05;;;8.40;99.90;;;;;;5072468;28;20249;-72
2021/11/02 01:59:41;;;;;;;2.58;2.38;;;8.40;99.90;;;;;;5072453;28;20313;-71
2021/11/02 02:02:12;;;;;;;3.70;2.35;;;8.40;99.90;;;;;;5072385;28;20212;-71
2021/11/02 02:04:50;;;;;;;4.97;2.63;;;8.40;99.90;;;;;;5072072;28;20303;-71
2021/11/02 02:07:24;;;;;;;6.03;2.33;;;8.40;99.90;;;;;;5072398;28;20206;-72
2021/11/02 02:09:59;;;;;;;4.63;2.65;;;8.40;99.90;;;;;;5071103;28;20222;-72
2021/11/02 02:12:39;;;;;;;2.95;1.83;;;8.40;99.90;;;;;;5072823;28;20214;-72
2021/11/02 02:15:12;;;;;;;4.38;2.70;;;8.40;99.90;;;;;;5081089;28;20211;-72
2021/11/02 02:17:46;;;;;;;4.78;2.35;;;8.50;99.90;;;;;;5073186;28;20302;-72
2021/11/02 02:20:30;;;;;;;2.42;2.20;;;8.40;99.90;;;;;;5071911;28;20319;-72
2021/11/02 02:23:21;;;;;;;2.60;2.22;;;8.40;99.90;;;;;;5072617;28;20241;-72
2021/11/02 02:25:55;;;;;;;2.95;2.58;;;8.40;99.90;;;;;;5072587;28;20225;-72
2021/11/02 02:28:25;;;;;;;2.35;2.03;;;8.40;99.90;;;;;;5072096;28;20235;-72
2021/11/02 02:30:56;;;;;;;3.13;2.10;;;8.40;99.90;;;;;;5071865;28;20598;-72
2021/11/02 02:33:27;;;;;;;4.60;2.30;;;8.40;99.90;;;;;;5072446;28;20207;-72
2021/11/02 02:35:55;;;;;;;2.78;2.20;;;8.40;99.90;;;;;;5072100;28;20285;-72
2021/11/02 02:38:25;;;;;;;2.35;1.90;;;8.40;99.90;;;;;;5072168;28;20236;-73
2021/11/02 02:40:54;;;;;;;2.70;1.88;;;8.30;99.90;;;;;;5072419;28;20198;-73
2021/11/02 02:43:23;;;;;;;2.80;1.65;;;8.20;99.90;;;;;;5071813;28;20232;-73
2021/11/02 02:45:52;;;;;;;2.60;2.10;;;8.20;99.90;;;;;;5072112;28;20241;-72
2021/11/02 02:48:22;;;;;;;2.40;1.98;;;8.20;99.90;;;;;;5072014;28;20279;-72
2021/11/02 02:50:50;;;;;;;2.85;2.10;;;8.10;99.90;;;;;;5071862;28;20604;-73
2021/11/02 02:53:18;;;;;;;4.25;2.10;;;8.00;99.90;;;;;;5072136;28;20224;-72
2021/11/02 02:55:47;;;;;;;3.65;2.03;;;8.00;99.90;;;;;;5072130;28;20237;-72
2021/11/02 02:58:15;;;;;;;2.78;1.92;;;7.90;99.90;;;;;;5072445;28;20232;-72
2021/11/02 03:00:44;;;;;;;4.22;2.45;;;7.90;99.90;;;;;;5072115;28;20206;-72
2021/11/02 03:03:14;;;;;;;5.28;1.88;;;7.80;99.90;;;;;;5072468;28;20210;-72
2021/11/02 03:05:42;;;;;;;5.50;2.05;;;7.70;99.90;;;;;;5071954;28;20309;-73
2021/11/02 03:08:09;;;;;;;4.47;2.13;;;7.70;99.90;;;;;;5071820;28;20229;-73
2021/11/02 03:10:37;;;;;;;5.43;2.40;;;7.70;99.90;;;;;;5072141;28;20228;-73
2021/11/02 03:13:09;;;;;;;6.30;2.28;;;7.70;99.90;;;;;;5072105;28;20212;-73
2021/11/02 03:15:52;;;;;;;2.10;1.70;;;7.70;99.90;;;;;;5072162;28;20212;-73
2021/11/02 03:18:38;;;;;;;2.72;1.90;;;7.70;99.90;;;;;;5071857;28;20233;-74
2021/11/02 03:43:47;;;;;;;2.40;2.00;;;7.40;99.90;;;;;;5093595;28;20266;-73
2021/11/02 03:49:08;;;;;;;3.30;2.20;;;7.30;99.90;;;;;;5081264;28;20297;-73
2021/11/02 03:54:37;;;;;;;3.10;2.33;;;7.20;99.90;;;;;;5099066;28;20262;-73
2021/11/02 03:57:12;;;;;;;2.33;2.13;;;7.10;99.90;;;;;;5097435;28;20236;-73
2021/11/02 04:00:07;;;;;;;3.05;2.20;;;7.20;99.90;;;;;;5095236;28;20356;-73
2021/11/02 05:07:29;;;;;;;2.72;2.38;;;6.50;99.90;;;;;;5092134;28;20243;-73
2021/11/02 05:13:07;;;;;;;6.93;2.58;;;6.80;99.90;;;;;;5089713;28;20222;-74
2021/11/02 05:48:50;;;;;;;5.05;2.30;;;7.40;99.90;;;;;;5074877;28;20266;-74
2021/11/02 05:54:41;;;;;;;3.50;2.17;;;7.50;99.90;;;;;;5032356;28;20204;-74
2021/11/02 05:57:17;;;;;;;7.18;2.58;;;7.50;99.90;;;;;;5072939;28;20221;-73
2021/11/02 05:59:48;;;;;;;2.83;2.38;;;7.60;99.90;;;;;;5074506;28;20570;-73
2021/11/02 06:02:33;;;;;;;3.15;1.90;;;7.60;99.90;;;;;;5074514;28;20198;-74
2021/11/02 06:08:28;;;;;;;2.92;2.42;;;7.70;99.90;;;;;;5032469;28;20200;-74
2021/11/02 06:27:55;;;;;;;5.68;2.35;;;7.60;99.90;;;;;;5074237;28;20256;-74
2021/11/02 06:30:26;;;;;;;2.58;2.38;;;7.60;99.90;;;;;;5074257;28;20628;-75
2021/11/02 06:33:03;;;;;;;2.60;2.40;;;7.60;99.90;;;;;;5073863;28;20312;-74
2021/11/02 06:35:34;;;;;;;3.25;2.38;;;7.60;99.90;;;;;;5074237;28;20208;-73
2021/11/02 06:38:39;;;;;;;4.10;2.53;;;7.60;99.90;;;;;;5074019;28;20207;-75
2021/11/02 06:47:22;;;;;;;8.95;3.30;;;7.70;99.90;;;;;;5073980;28;20675;-75
2021/11/02 06:50:04;;;;;;;6.95;4.45;;;7.70;99.90;;;;;;5073919;28;20318;-75
2021/11/02 06:58:31;;;;;;;3.85;3.55;;;7.70;99.90;;;;;;5073892;28;20194;-74
2021/11/02 07:18:01;;;;;;;4.13;3.72;;;7.70;99.90;;;;;;5031236;28;20204;-73
2021/11/02 07:20:41;;;;;;;4.10;3.45;;;7.70;99.90;;;;;;5065999;28;20203;-73
2021/11/02 07:23:24;;;;;;;4.35;3.20;;;7.70;99.90;;;;;;5074282;28;20362;-73
2021/11/02 07:26:00;;;;;;;4.03;3.58;;;7.80;99.90;;;;;;5073144;28;20811;-73
2021/11/02 08:47:01;;;;;;;3.50;2.78;;;8.80;93.50;;;;;;5072376;28;20399;-73
2021/11/02 08:49:29;;;;;;;4.65;2.72;;;8.90;93.10;;;;;;5072405;28;20285;-74
2021/11/02 08:52:01;;;;;;;4.82;2.40;;;9.00;93.10;;;;;;5072529;28;20229;-73
2021/11/02 08:54:29;;;;;;;5.35;2.90;;;9.30;93.10;;;;;;5073979;28;20266;-74
2021/11/02 08:56:56;;;;;;;4.18;2.65;;;9.40;91.90;;;;;;5073172;28;20293;-75
2021/11/02 08:59:25;;;;;;;6.70;2.70;;;9.20;90.20;;;;;;5072820;28;20240;-74
2021/11/02 09:01:57;;;;;;;2.45;2.25;;;9.20;90.30;;;;;;5072897;28;20315;-75
2021/11/02 09:04:29;;;;;;;4.47;2.65;;;9.40;90.90;;;;;;5072682;28;20672;-75
2021/11/02 09:06:58;;;;;;;4.30;2.90;;;9.80;91.00;;;;;;5073005;28;20646;-73
2021/11/02 09:09:30;;;;;;;2.97;2.10;;;10.00;89.60;;;;;;5071503;28;20228;-74
2021/11/02 09:12:00;;;;;;;3.00;2.70;;;10.30;87.10;;;;;;5073018;28;20197;-74
2021/11/02 09:14:32;;;;;;;3.80;2.00;;;10.40;85.00;;;;;;5072532;28;20584;-75
2021/11/02 09:17:00;;;;;;;2.40;2.03;;;10.50;83.00;;;;;;5072098;28;20549;-76
2021/11/02 09:19:28;;;;;;;3.67;2.13;;;10.40;79.30;;;;;;5074445;28;20253;-75
2021/11/02 09:21:56;;;;;;;8.50;2.38;;;10.30;79.00;;;;;;5075784;28;20259;-74
2021/11/02 09:24:23;;;;;;;5.88;3.58;;;10.40;79.90;;;;;;5076448;28;20206;-73
2021/11/02 09:26:51;;;;;;;10.35;5.47;;;10.40;80.90;;;;;;5075669;28;20213;-73
2021/11/02 09:29:20;;;;;;;5.53;2.60;;;10.50;80.40;;;;;;5075408;28;20234;-73
2021/11/02 09:31:48;;;;;;;3.20;1.85;;;10.40;80.20;;;;;;5075980;28;20282;-75
2021/11/02 09:34:15;;;;;;;4.32;2.10;;;10.30;81.80;;;;;;5076673;28;20220;-75
2021/11/02 09:36:46;;;;;;;4.65;2.65;;;10.30;83.20;;;;;;5075484;28;20300;-73
2021/11/02 09:39:14;;;;;;;4.65;2.80;;;10.20;84.90;;;;;;5074846;28;20256;-73
2021/11/02 09:42:12;;;;;;;5.50;2.20;;;10.20;87.10;;;;;;5075374;28;20202;-73
2021/11/02 09:45:19;;;;;;;3.65;2.50;;;10.10;89.00;;;;;;5075756;28;20205;-73
2021/11/02 09:48:13;;;;;;;4.10;2.60;;;10.00;90.10;;;;;;5073987;28;20303;-73
2021/11/02 09:51:12;;;;;;;4.38;2.50;;;9.90;92.00;;;;;;5075234;28;20216;-73
2021/11/02 09:54:24;;;;;;;8.90;2.95;;;9.80;93.50;;;;;;5074993;28;20239;-72
2021/11/02 09:57:05;;;;;;;3.60;2.80;;;9.70;95.00;;;;;;5074929;28;20646;-73
2021/11/02 09:59:55;;;;;;;7.55;3.33;;;9.70;96.80;;;;;;5075300;28;20233;-73
2021/11/02 10:02:58;;;;;;;3.63;2.78;;;9.70;97.60;;;;;;5075577;28;20217;-73
2021/11/02 10:05:48;;;;;;;3.45;2.70;;;9.80;98.80;;;;;;5057389;28;20201;-73
2021/11/02 10:08:33;;;;;;;3.40;2.72;;;9.80;99.40;;;;;;5076573;28;20724;-73
2021/11/02 10:11:09;;;;;;;4.85;2.72;;;9.90;99.40;;;;;;5084633;28;20358;-73
2021/11/02 10:14:03;;;;;;;6.30;3.03;;;10.00;99.70;;;;;;5084800;28;20229;-74
2021/11/02 10:16:48;;;;;;;3.90;2.50;;;10.00;99.90;;;;;;5088813;28;20240;-74
2021/11/02 10:19:57;;;;;;;7.10;3.03;;;10.10;99.90;;;;;;5082500;28;20252;-73
2021/11/02 10:22:53;;;;;;;5.13;2.58;;;10.20;99.90;;;;;;5076099;28;20248;-74
2021/11/02 10:25:48;;;;;;;4.70;2.42;;;10.20;99.10;;;;;;5076580;28;20296;-73
2021/11/02 10:28:58;;;;;;;4.35;2.40;;;10.10;99.00;;;;;;5078190;28;20253;-74
2021/11/02 10:31:33;;;;;;;5.60;2.70;;;10.10;99.40;;;;;;5019032;28;20228;-72
2021/11/02 10:34:09;;;;;;;3.75;2.10;;;10.00;99.70;;;;;;5075986;28;20241;-72
2021/11/02 10:36:51;;;;;;;4.82;2.65;;;9.90;99.90;;;;;;5076783;28;20206;-72
2021/11/02 10:39:34;;;;;;;2.65;2.20;;;10.00;99.90;;;;;;5077458;28;20267;-74
2021/11/02 10:42:14;;;;;;;4.43;1.60;;;10.00;99.90;;;;;;5079779;28;20209;-73
2021/11/02 10:44:44;;;;;;;3.28;1.35;;;10.00;99.90;;;;;;5077960;28;20277;-74
2021/11/02 10:47:19;;;;;;;1.83;1.33;;;10.00;99.90;;;;;;5063698;22;20325;-78
2021/11/02 10:50:04;;;;;;;2.50;1.33;;;10.10;99.90;;;;;;5036073;28;20206;-77
2021/11/02 10:52:32;;;;;;;1.67;1.10;;;10.20;99.90;;;;;;5036742;28;20305;-77
2021/11/02 10:55:22;;;;;;;1.63;1.50;;;10.30;99.90;;;;;;5045263;28;20207;-77
2021/11/02 10:58:10;;;;;;;3.70;1.20;;;10.30;99.40;;;;;;5022826;28;20212;-77
2021/11/02 11:00:37;;;;;;;1.30;1.08;;;10.40;99.00;;;;;;5017248;28;20644;-78
2021/11/02 11:03:08;;;;;;;2.20;1.30;;;10.50;98.30;;;;;;5018741;28;20627;-77
2021/11/02 11:05:36;;;;;;;1.33;1.23;;;10.60;97.00;;;;;;5018721;28;20240;-78
2021/11/02 11:08:04;;;;;;;1.20;1.10;;;10.80;96.70;;;;;;5018881;28;20211;-77
2021/11/02 11:10:33;;;;;;;0.80;0.80;;;10.80;95.10;;;;;;5018240;28;20212;-77
2021/11/02 11:13:02;;;;;;;2.15;0.95;;;10.80;93.40;;;;;;5018659;28;20366;-78
2021/11/02 11:15:32;;;;;;;1.40;1.23;;;10.70;92.70;;;;;;5019070;28;20267;-77
2021/11/02 11:18:04;;;;;;;3.92;1.05;;;10.80;93.40;;;;;;5025312;28;20215;-76
2021/11/02 11:20:32;;;;;;;2.70;1.42;;;10.90;92.70;;;;;;5036736;28;20208;-77
2021/11/02 11:23:04;;;;;;;1.58;1.20;;;11.00;92.50;;;;;;5032141;28;20215;-77
2021/11/02 11:25:39;;;;;;;3.95;1.25;;;11.00;92.30;;;;;;5018707;28;20234;-77
2021/11/02 11:28:12;;;;;;;1.13;1.02;;;11.00;91.90;;;;;;5017564;28;20207;-79
2021/11/02 11:30:40;;;;;;;1.13;1.02;;;11.10;92.10;;;;;;5023150;28;20214;-77
2021/11/02 11:33:09;;;;;;;3.33;1.10;;;11.00;91.80;;;;;;5022341;28;20255;-78
2021/11/02 11:35:36;;;;;;;2.40;1.38;;;10.90;92.40;;;;;;5021769;28;20258;-78
2021/11/02 11:38:05;;;;;;;3.78;1.33;;;10.90;92.70;;;;;;5032283;28;20278;-76
2021/11/02 11:40:36;;;;;;;1.58;1.33;;;11.00;93.50;;;;;;5021166;28;20299;-77
2021/11/02 11:43:04;;;;;;;2.03;1.05;;;11.00;92.50;;;;;;5036445;28;20192;-78
2021/11/02 11:45:34;;;;;;;1.30;1.20;;;11.10;92.50;;;;;;5021420;28;20239;-76
2021/11/02 11:48:05;;;;;;;1.60;1.20;;;11.20;92.40;;;;;;5016839;28;20304;-76
2021/11/02 11:50:33;;;;;;;1.90;1.40;;;11.30;92.50;;;;;;5015416;28;20207;-76
2021/11/02 11:53:02;;;;;;;1.35;1.20;;;11.40;91.80;;;;;;5015350;28;20234;-76
2021/11/02 11:55:32;;;;;;;1.85;1.10;;;11.40;90.90;;;;;;5015064;28;20303;-76
2021/11/02 11:58:12;;;;;;;2.45;1.48;;;11.60;90.00;;;;;;5015789;28;20210;-76
2021/11/02 12:00:42;;;;;;;1.60;1.30;;;11.60;90.20;;;;;;5014766;28;20208;-76
2021/11/02 12:03:17;;;;;;;1.75;1.65;;;11.80;89.70;;;;;;5015241;28;20215;-76
2021/11/02 12:05:46;;;;;;;1.38;1.20;;;12.00;85.60;;;;;;5015717;28;20307;-76
2021/11/02 12:08:24;;;;;;;1.45;1.20;;;12.10;83.00;;;;;;5015592;28;20208;-77
2021/11/02 12:10:53;;;;;;;1.00;1.00;;;12.30;80.90;;;;;;5022367;28;20365;-77
2021/11/02 12:13:21;;;;;;;1.33;1.10;;;12.40;79.10;;;;;;5032934;28;20254;-77
2021/11/02 12:16:08;;;;;;;1.10;0.82;;;12.40;77.20;;;;;;5027698;28;20239;-77
2021/11/02 12:18:37;;;;;;;1.85;1.02;;;12.40;78.00;;;;;;5032600;28;20242;-76
2021/11/02 12:21:07;;;;;;;1.30;1.00;;;12.40;76.20;;;;;;5033445;28;20238;-76
2021/11/02 12:23:39;;;;;;;1.00;0.90;;;12.20;75.20;;;;;;5034114;28;20231;-76
2021/11/02 12:26:07;;;;;;;2.35;1.00;;;12.30;77.50;;;;;;5034211;28;20224;-76
2021/11/02 12:28:38;;;;;;;1.02;1.02;;;12.40;78.50;;;;;;5034656;28;20218;-76
2021/11/02 12:31:06;;;;;;;2.85;0.93;;;12.50;76.50;;;;;;5027839;28;20208;-77
2021/11/02 12:33:35;;;;;;;1.30;1.20;;;12.40;76.30;;;;;;5018739;28;20224;-78
2021/11/02 12:36:05;;;;;;;1.10;1.05;;;12.40;75.90;;;;;;5019937;28;20239;-76
2021/11/02 12:38:37;;;;;;;2.15;0.90;;;12.30;73.20;;;;;;5017120;28;20204;-76
2021/11/02 12:41:17;;;;;;;1.20;1.00;;;12.30;75.00;;;;;;5015327;28;20303;-76
2021/11/02 12:43:46;;;;;;;4.60;1.30;;;12.50;73.60;;;;;;5014993;28;20310;-77
2021/11/02 12:46:14;;;;;;;5.55;1.15;;;12.10;72.70;;;;;;5014387;28;20238;-77
2021/11/02 12:48:44;;;;;;;1.10;1.00;;;12.20;73.60;;;;;;5014446;28;20208;-77
2021/11/02 12:51:16;;;;;;;0.85;0.82;;;12.20;74.90;;;;;;5015878;28;20306;-77
2021/11/02 12:53:49;;;;;;;1.40;1.00;;;12.20;74.90;;;;;;5015993;28;20227;-77
2021/11/02 12:56:17;;;;;;;1.20;1.00;;;12.20;73.90;;;;;;5019662;28;20840;-77
2021/11/02 12:58:48;;;;;;;1.25;1.05;;;12.10;75.60;;;;;;5019565;28;20212;-79
2021/11/02 13:01:33;;;;;;;1.55;0.90;;;12.30;75.40;;;;;;5019463;28;20678;-77
2021/11/02 13:04:05;;;;;;;1.75;0.77;;;12.20;75.60;;;;;;5020104;28;20204;-77
2021/11/02 13:06:40;;;;;;;1.00;0.80;;;12.10;75.00;;;;;;5023910;28;20223;-77
2021/11/02 13:09:08;;;;;;;1.88;0.82;;;12.00;75.20;;;;;;5032479;28;20219;-77
2021/11/02 13:11:36;;;;;;;0.70;0.70;;;11.90;75.90;;;;;;5031552;28;20211;-77
2021/11/02 13:14:11;;;;;;;0.50;0.50;;;11.90;75.80;;;;;;5031150;28;20570;-78
2021/11/02 13:16:57;;;;;;;0.70;0.70;;;12.00;74.70;;;;;;5032509;28;20231;-78
2021/11/02 13:19:26;;;;;;;1.30;0.80;;;12.30;70.70;;;;;;5032775;28;20251;-77
2021/11/02 13:21:53;;;;;;;0.85;0.85;;;12.40;69.80;;;;;;5032969;28;20208;-77
2021/11/02 13:24:26;;;;;;;1.80;0.77;;;12.30;69.70;;;;;;5031584;28;20208;-77
2021/11/02 13:26:54;;;;;;;1.05;0.90;;;12.10;70.00;;;;;;5029764;28;20267;-79
2021/11/02 13:29:24;;;;;;;0.93;0.85;;;12.00;70.70;;;;;;5033223;28;20218;-77
2021/11/02 13:31:52;;;;;;;0.75;0.75;;;12.00;71.60;;;;;;5031481;28;20212;-77
2021/11/02 13:34:34;;;;;;;0.82;0.70;;;11.90;72.50;;;;;;5024351;28;20228;-77
2021/11/02 13:37:01;;;;;;;0.70;0.70;;;12.00;72.80;;;;;;5019286;28;20228;-77
2021/11/02 13:39:29;;;;;;;2.35;0.70;;;12.10;71.90;;;;;;5019489;28;20214;-77
2021/11/02 13:41:58;;;;;;;0.60;0.60;;;12.10;69.50;;;;;;5020756;28;20729;-77
2021/11/02 13:44:31;;;;;;;1.00;0.80;;;12.10;70.20;;;;;;5020956;28;20208;-78
2021/11/02 13:47:00;;;;;;;2.03;1.05;;;12.10;70.20;;;;;;5020039;28;20232;-78
2021/11/02 13:49:27;;;;;;;1.13;0.80;;;12.20;69.70;;;;;;5022036;28;20291;-77
2021/11/02 13:51:54;;;;;;;0.90;0.90;;;12.30;69.70;;;;;;5021756;28;20203;-77
2021/11/02 13:54:22;;;;;;;2.55;1.00;;;12.20;69.60;;;;;;5023880;28;20234;-77
2021/11/02 13:56:49;;;;;;;2.45;0.75;;;12.10;69.50;;;;;;5028974;28;20224;-77
2021/11/02 13:59:16;;;;;;;0.80;0.60;;;11.90;69.30;;;;;;5034051;28;20212;-79
2021/11/02 14:01:47;;;;;;;2.15;0.90;;;11.80;69.30;;;;;;5028340;28;20203;-77
2021/11/02 14:04:17;;;;;;;1.60;0.90;;;11.70;69.10;;;;;;5028904;28;20203;-78
2021/11/02 14:06:47;;;;;;;0.80;0.80;;;11.60;69.00;;;;;;5022784;28;20286;-78
2021/11/02 14:09:16;;;;;;;0.60;0.60;;;11.50;70.80;;;;;;5019446;28;20271;-77
2021/11/02 14:11:43;;;;;;;0.68;0.60;;;11.50;71.00;;;;;;5019866;28;20219;-79
2021/11/02 14:14:11;;;;;;;0.40;0.40;;;11.40;70.10;;;;;;5019672;28;20350;-77
2021/11/02 14:16:41;;;;;;;0.60;0.60;;;11.40;69.50;;;;;;5017325;28;20235;-77
2021/11/02 14:19:40;;;;;;;0.70;0.70;;;11.40;69.80;;;;;;5018602;28;20254;-77
2021/11/02 14:22:07;;;;;;;1.15;0.75;;;11.40;71.30;;;;;;5018067;28;20254;-79
2021/11/02 14:24:36;;;;;;;0.73;0.70;;;11.30;72.20;;;;;;5017678;28;20290;-77
2021/11/02 14:27:03;;;;;;;0.60;0.60;;;11.30;73.20;;;;;;5017438;28;20230;-77
2021/11/02 14:29:53;;;;;;;1.17;0.70;;;11.30;73.80;;;;;;5020587;28;20702;-78
2021/11/02 14:32:50;;;;;;;1.95;0.75;;;11.20;74.80;;;;;;5029116;28;20667;-78
2021/11/02 14:35:50;;;;;;;1.00;0.70;;;11.20;74.50;;;;;;5034020;28;20242;-78
2021/11/02 14:38:20;;;;;;;0.90;0.63;;;10.90;74.10;;;;;;5031355;28;20269;-78
2021/11/02 14:40:49;;;;;;;0.68;0.52;;;10.60;74.80;;;;;;5031951;28;20204;-79
2021/11/02 14:43:22;;;;;;;0.77;0.77;;;10.30;77.70;;;;;;5030441;28;20215;-78
2021/11/02 14:45:51;;;;;;;3.05;0.90;;;10.30;81.70;;;;;;5032186;28;20243;-78
2021/11/02 14:48:48;;;;;;;3.67;1.30;;;10.20;84.90;;;;;;5023175;28;20790;-78
2021/11/02 14:51:27;;;;;;;2.75;1.35;;;10.20;89.50;;;;;;5017293;28;20211;-77
2021/11/02 14:53:57;;;;;;;0.70;0.70;;;10.10;91.30;;;;;;5016174;28;20322;-77
2021/11/02 14:56:32;;;;;;;0.85;0.77;;;9.90;92.40;;;;;;5015944;28;20299;-77
2021/11/02 14:59:00;;;;;;;3.63;0.75;;;9.70;93.40;;;;;;5020303;28;20213;-78
2021/11/02 15:01:48;;;;;;;1.08;0.80;;;9.60;94.90;;;;;;5023691;28;20597;-76
2021/11/02 15:04:18;;;;;;;2.63;1.10;;;9.40;96.90;;;;;;5018446;28;20733;-77
2021/11/02 15:06:48;;;;;;;1.73;0.80;;;9.30;99.90;;;;;;5018789;28;20261;-77
2021/11/02 15:09:17;;;;;;;2.50;0.80;;;9.20;99.90;;;;;;5019599;28;20294;-77
2021/11/02 15:11:45;;;;;;;1.30;1.20;;;9.10;99.90;;;;;;5019508;28;20213;-77
2021/11/02 15:14:13;;;;;;;1.10;1.00;;;9.00;99.90;;;;;;5018630;28;20229;-77
2021/11/02 15:16:44;;;;;;;0.70;0.70;;;9.00;99.90;;;;;;5019151;28;20336;-78
2021/11/02 15:19:11;;;;;;;0.70;0.65;;;9.00;99.90;;;;;;5028442;28;20194;-80
2021/11/02 15:21:41;;;;;;;1.08;0.90;;;8.90;99.90;;;;;;5036683;28;20242;-78
2021/11/02 15:24:19;;;;;;;0.73;0.70;;;8.90;99.90;;;;;;5026795;28;20553;-77
2021/11/02 15:26:50;;;;;;;3.25;1.00;;;8.90;99.90;;;;;;5017932;28;20229;-78
2021/11/02 15:29:19;;;;;;;1.02;0.60;;;8.80;99.90;;;;;;5017605;28;20229;-77
2021/11/02 15:32:05;;;;;;;1.08;0.95;;;8.80;99.90;;;;;;5016705;28;20262;-78
2021/11/02 15:34:40;;;;;;;0.80;0.80;;;8.80;99.90;;;;;;5016711;28;20225;-77
2021/11/02 15:37:11;;;;;;;0.60;0.60;;;8.80;99.90;;;;;;5015585;28;20248;-77
2021/11/02 15:39:39;;;;;;;0.82;0.60;;;8.80;99.90;;;;;;5015623;28;20219;-77
2021/11/02 15:42:21;;;;;;;0.63;0.63;;;8.80;99.90;;;;;;5015664;28;20206;-77
2021/11/02 15:44:50;;;;;;;1.10;0.80;;;8.90;99.90;;;;;;5016058;28;20215;-78
2021/11/02 15:47:17;;;;;;;0.80;0.80;;;8.90;99.90;;;;;;5017687;28;20245;-77
2021/11/02 15:49:52;;;;;;;0.70;0.70;;;8.90;99.90;;;;;;5015401;28;20730;-78
2021/11/02 15:52:21;;;;;;;1.35;0.90;;;8.90;99.90;;;;;;5016286;28;20245;-78
2021/11/02 15:54:48;;;;;;;1.80;0.93;;;8.90;99.90;;;;;;5015690;28;20324;-78
2021/11/02 15:57:15;;;;;;;2.13;1.30;;;8.90;99.90;;;;;;5017759;28;20234;-79
2021/11/02 15:59:42;;;;;;;1.25;0.82;;;8.80;99.90;;;;;;5016070;28;20246;-78
2021/11/02 16:02:09;;;;;;;0.95;0.80;;;8.80;99.90;;;;;;5018063;28;20241;-79
2021/11/02 16:04:36;;;;;;;1.48;1.00;;;8.80;99.90;;;;;;5018378;28;20578;-77
2021/11/02 16:07:05;;;;;;;0.90;0.90;;;8.80;99.90;;;;;;5018210;28;20268;-77
2021/11/02 16:09:49;;;;;;;1.02;0.98;;;8.80;99.90;;;;;;5017742;28;20210;-78
2021/11/02 16:12:29;;;;;;;1.27;0.80;;;8.80;99.90;;;;;;5017932;28;20217;-79
2021/11/02 16:14:59;;;;;;;1.42;1.10;;;8.80;99.90;;;;;;5019553;28;20268;-79
2021/11/02 16:17:28;;;;;;;1.15;1.00;;;8.90;99.90;;;;;;5024345;28;20276;-78
2021/11/02 16:19:56;;;;;;;1.92;1.08;;;8.90;99.90;;;;;;5032707;28;20250;-78
2021/11/02 16:22:25;;;;;;;1.27;1.10;;;8.90;99.90;;;;;;5023104;28;20228;-79
2021/11/02 16:25:06;;;;;;;3.28;1.10;;;8.90;99.90;;;;;;5034272;28;20238;-80
2021/11/02 16:27:33;;;;;;;2.13;1.00;;;8.90;99.90;;;;;;5021327;28;20210;-78
2021/11/02 16:30:01;;;;;;;2.25;1.55;;;8.80;99.90;;;;;;5016172;28;20206;-78
2021/11/02 16:32:29;;;;;;;1.60;1.10;;;8.80;99.90;;;;;;5015812;28;20214;-77
2021/11/02 16:34:57;;;;;;;1.45;1.27;;;8.80;99.90;;;;;;5016649;28;20238;-78
2021/11/02 16:37:36;;;;;;;2.35;1.20;;;8.90;99.90;;;;;;5015184;28;20229;-78
2021/11/02 16:40:26;;;;;;;1.40;1.10;;;8.90;99.90;;;;;;5016514;28;20298;-79
2021/11/02 16:43:01;;;;;;;1.05;0.90;;;8.80;99.90;;;;;;5018100;28;20217;-77
2021/11/02 16:45:35;;;;;;;1.50;1.20;;;8.80;99.90;;;;;;5053101;22;20253;-72
2021/11/02 16:48:05;;;;;;;2.92;1.05;;;8.70;99.90;;;;;;5011176;28;20618;-73
2021/11/02 16:50:35;;;;;;;1.10;1.00;;;8.70;99.90;;;;;;5011609;28;20302;-73
2021/11/02 16:53:13;;;;;;;1.38;1.10;;;8.70;99.90;;;;;;5012109;28;20246;-72
2021/11/02 16:55:44;;;;;;;1.05;0.95;;;8.60;99.90;;;;;;5011725;28;20229;-73
2021/11/02 16:58:26;;;;;;;0.95;0.90;;;8.70;99.90;;;;;;5011919;28;20587;-72
2021/11/02 17:01:20;;;;;;;1.73;0.95;;;8.60;99.90;;;;;;5012159;28;20218;-73
2021/11/02 17:03:47;;;;;;;1.45;1.30;;;8.70;99.90;;;;;;5012035;28;20238;-72
2021/11/02 17:06:17;;;;;;;1.45;1.35;;;8.60;99.90;;;;;;5012241;28;20253;-72
2021/11/02 17:08:51;;;;;;;6.03;1.70;;;8.60;99.90;;;;;;5012517;28;20211;-72
2021/11/02 17:11:23;;;;;;;2.00;1.40;;;8.70;99.90;;;;;;5012767;28;20210;-73
2021/11/02 17:13:51;;;;;;;1.70;1.55;;;8.70;99.90;;;;;;5012076;28;20298;-72
2021/11/02 17:16:21;;;;;;;5.00;3.10;;;8.80;99.90;;;;;;5011777;28;20705;-73
2021/11/02 17:18:52;;;;;;;2.40;1.98;;;8.80;99.90;;;;;;5011604;28;20221;-74
2021/11/02 17:21:21;;;;;;;2.90;1.70;;;8.80;99.90;;;;;;5011609;28;20660;-73
2021/11/02 17:23:48;;;;;;;1.73;1.63;;;8.80;99.90;;;;;;5011645;28;20304;-72
2021/11/02 17:26:16;;;;;;;2.05;1.90;;;8.80;99.90;;;;;;5011879;28;20270;-73
2021/11/02 17:28:47;;;;;;;5.78;2.72;;;8.80;99.90;;;;;;5011537;28;20237;-73
2021/11/02 17:31:16;;;;;;;2.17;1.98;;;8.70;99.90;;;;;;5012591;28;20221;-75
2021/11/02 17:33:44;;;;;;;3.42;2.13;;;8.70;99.90;;;;;;5011807;28;20214;-73
2021/11/02 17:36:13;;;;;;;1.95;1.77;;;8.60;99.90;;;;;;5011284;28;20231;-73
2021/11/02 17:38:41;;;;;;;2.30;2.10;;;8.60;99.90;;;;;;5011844;28;20302;-73
2021/11/02 17:41:10;;;;;;;2.97;2.67;;;8.60;99.90;;;;;;5015274;28;20299;-72
2021/11/02 17:43:37;;;;;;;2.88;1.95;;;8.50;99.90;;;;;;5016168;28;20222;-72